Time;durP1;ratioP1;P1;durP2;ratioP2;P2;SDS_P1;SDS_P2;PMS_P1;PMS_P2;Temp;Humidity;BMP_temperature;BMP_pressure;BME280_temperature;BME280_humidity;BME280_pressure;Samples;Min_cycle;Max_cycle;Signal;HPM_P1;HPM_P2
2021/03/12 00:01:39;;;;;;;5.72;1.33;;;8.00;81.10;;;;;;5062100;28;20033;-62
2021/03/12 00:04:05;;;;;;;3.78;1.50;;;8.10;81.00;;;;;;5042348;28;20485;-62
2021/03/12 00:06:30;;;;;;;4.25;1.52;;;8.20;80.80;;;;;;5042937;28;20060;-62
2021/03/12 00:08:56;;;;;;;5.00;1.63;;;8.10;80.10;;;;;;5060051;28;20097;-62
2021/03/12 00:11:22;;;;;;;8.75;1.60;;;8.10;79.70;;;;;;5059685;28;20040;-62
2021/03/12 00:13:48;;;;;;;5.93;1.20;;;8.20;80.60;;;;;;5060807;28;20032;-62
2021/03/12 00:16:14;;;;;;;2.85;1.20;;;8.20;80.10;;;;;;5060013;28;20123;-62
2021/03/12 00:18:42;;;;;;;2.75;1.48;;;8.30;79.50;;;;;;5042313;28;20072;-62
2021/03/12 00:21:09;;;;;;;2.13;1.30;;;8.30;79.20;;;;;;5059794;28;20732;-62
2021/03/12 00:23:36;;;;;;;3.33;1.20;;;8.20;79.30;;;;;;5060957;28;20036;-62
2021/03/12 00:26:02;;;;;;;4.07;1.40;;;8.10;79.00;;;;;;5042535;28;20033;-62
2021/03/12 00:28:31;;;;;;;5.35;1.52;;;8.10;79.40;;;;;;5024320;28;20033;-62
2021/03/12 00:30:57;;;;;;;5.40;1.52;;;8.00;79.50;;;;;;5060847;28;20050;-62
2021/03/12 00:33:25;;;;;;;2.10;1.33;;;8.00;79.90;;;;;;5042428;28;20083;-62
2021/03/12 00:35:51;;;;;;;4.00;1.17;;;8.00;80.50;;;;;;5060781;28;20032;-62
2021/03/12 00:38:17;;;;;;;5.30;2.28;;;8.10;79.40;;;;;;5059830;28;20557;-62
2021/03/12 00:40:52;;;;;;;3.00;1.30;;;8.10;79.20;;;;;;5042286;28;20036;-62
2021/03/12 00:43:20;;;;;;;3.22;1.40;;;8.20;78.80;;;;;;5041900;28;20029;-62
2021/03/12 00:46:07;;;;;;;2.05;1.13;;;8.20;78.50;;;;;;5042763;28;20024;-62
2021/03/12 00:48:34;;;;;;;5.47;1.38;;;8.30;79.40;;;;;;5060340;28;20373;-62
2021/03/12 00:51:03;;;;;;;3.25;1.45;;;8.40;77.80;;;;;;5042839;28;20037;-62
2021/03/12 00:53:38;;;;;;;3.03;1.20;;;8.50;77.70;;;;;;5056688;28;20153;-62
2021/03/12 00:56:05;;;;;;;3.80;1.65;;;8.40;77.20;;;;;;5042061;28;20060;-62
2021/03/12 00:58:32;;;;;;;7.38;1.50;;;8.50;77.80;;;;;;5045174;28;20028;-62
2021/03/12 01:01:01;;;;;;;3.45;1.20;;;8.50;77.60;;;;;;5059314;28;20025;-62
2021/03/12 01:03:31;;;;;;;2.13;1.40;;;8.60;77.10;;;;;;5042300;28;20056;-62
2021/03/12 01:06:04;;;;;;;3.35;1.45;;;8.70;77.80;;;;;;5041860;28;20132;-62
2021/03/12 01:08:38;;;;;;;4.75;1.88;;;8.70;77.20;;;;;;5059817;28;20036;-62
2021/03/12 01:11:04;;;;;;;7.40;2.10;;;8.80;77.50;;;;;;5040510;28;20033;-62
2021/03/12 01:13:33;;;;;;;3.85;1.20;;;8.80;77.70;;;;;;5042330;28;20560;-62
2021/03/12 01:15:59;;;;;;;4.00;1.20;;;8.90;77.60;;;;;;5059333;28;20115;-62
2021/03/12 01:18:29;;;;;;;5.25;1.58;;;8.90;77.40;;;;;;5059994;28;20024;-62
2021/03/12 01:20:59;;;;;;;5.35;1.90;;;9.00;77.60;;;;;;5051587;28;20519;-62
2021/03/12 01:23:25;;;;;;;7.57;1.67;;;9.00;78.20;;;;;;5061729;28;20037;-62
2021/03/12 01:25:51;;;;;;;3.35;1.48;;;8.90;78.90;;;;;;5046354;28;20029;-62
2021/03/12 01:28:22;;;;;;;5.00;1.65;;;8.90;80.00;;;;;;5065916;28;20428;-61
2021/03/12 01:30:49;;;;;;;5.55;1.98;;;8.80;80.50;;;;;;5047846;28;20024;-61
2021/03/12 01:33:24;;;;;;;8.82;2.47;;;8.70;82.00;;;;;;5031757;28;20100;-62
2021/03/12 01:35:50;;;;;;;6.85;2.00;;;8.50;83.80;;;;;;5041916;28;20029;-61
2021/03/12 01:38:17;;;;;;;5.53;1.90;;;8.30;84.30;;;;;;5054037;28;20186;-61
2021/03/12 01:40:47;;;;;;;8.40;2.45;;;8.20;85.20;;;;;;5044442;28;20032;-61
2021/03/12 01:43:13;;;;;;;4.55;1.98;;;8.10;85.90;;;;;;5062692;28;20048;-61
2021/03/12 01:45:42;;;;;;;7.00;2.03;;;7.90;87.20;;;;;;5062393;28;20816;-62
2021/03/12 01:48:12;;;;;;;3.97;2.00;;;7.80;86.40;;;;;;5061777;28;20032;-61
2021/03/12 01:50:39;;;;;;;3.78;1.80;;;7.60;87.70;;;;;;5044465;28;20029;-61
2021/03/12 01:53:10;;;;;;;4.85;2.17;;;7.60;87.50;;;;;;5043252;28;20128;-61
2021/03/12 01:55:36;;;;;;;5.15;1.58;;;7.60;87.50;;;;;;5044026;28;20804;-61
2021/03/12 01:58:05;;;;;;;4.28;1.55;;;7.60;86.50;;;;;;5044990;28;20037;-61
2021/03/12 02:00:38;;;;;;;3.72;1.50;;;7.50;86.60;;;;;;5062237;28;20037;-61
2021/03/12 02:03:16;;;;;;;2.80;1.58;;;7.40;87.40;;;;;;5044683;28;20060;-61
2021/03/12 02:05:53;;;;;;;2.95;1.38;;;7.40;87.50;;;;;;5045228;28;20041;-61
2021/03/12 02:08:20;;;;;;;4.85;1.65;;;7.40;86.70;;;;;;5060232;28;20032;-61
2021/03/12 02:10:54;;;;;;;2.08;1.60;;;7.40;87.10;;;;;;5060834;28;20043;-61
2021/03/12 02:13:46;;;;;;;5.35;3.13;;;7.30;86.70;;;;;;5060560;28;20701;-61
2021/03/12 02:16:32;;;;;;;1.55;1.30;;;7.20;87.40;;;;;;5060945;28;20044;-61
2021/03/12 02:19:19;;;;;;;1.65;1.40;;;7.20;87.10;;;;;;5044898;28;20116;-61
2021/03/12 02:21:49;;;;;;;3.28;1.00;;;7.10;86.90;;;;;;5058914;28;20044;-61
2021/03/12 02:24:55;;;;;;;3.83;1.35;;;7.20;87.30;;;;;;5060083;28;20033;-61
2021/03/12 02:27:36;;;;;;;1.63;0.80;;;7.00;85.90;;;;;;5057397;28;20043;-61
2021/03/12 02:30:06;;;;;;;2.08;1.20;;;7.00;86.70;;;;;;5043752;28;20037;-61
2021/03/12 02:32:42;;;;;;;3.08;1.02;;;7.00;86.70;;;;;;5058821;28;20068;-61
2021/03/12 02:35:19;;;;;;;1.77;0.90;;;6.90;86.00;;;;;;5042924;28;20681;-61
2021/03/12 02:37:49;;;;;;;2.10;1.00;;;6.80;87.00;;;;;;5041596;28;20032;-62
2021/03/12 02:40:18;;;;;;;3.03;1.08;;;6.60;87.20;;;;;;5044685;28;20025;-61
2021/03/12 02:42:50;;;;;;;2.53;0.90;;;6.60;87.40;;;;;;5044304;28;20039;-61
2021/03/12 02:45:20;;;;;;;3.10;1.35;;;6.70;87.30;;;;;;5053983;28;20036;-61
2021/03/12 02:47:52;;;;;;;1.90;0.85;;;6.70;88.00;;;;;;5043558;28;20807;-62
2021/03/12 02:50:22;;;;;;;3.70;0.90;;;6.80;86.70;;;;;;5058722;28;20048;-61
2021/03/12 02:52:50;;;;;;;4.93;0.70;;;6.70;86.10;;;;;;5042872;28;20037;-61
2021/03/12 02:55:21;;;;;;;1.95;0.70;;;6.70;86.40;;;;;;5057954;28;20083;-61
2021/03/12 02:57:54;;;;;;;3.90;0.75;;;6.70;86.50;;;;;;5060721;28;20094;-61
2021/03/12 03:00:21;;;;;;;1.85;0.50;;;6.70;86.60;;;;;;5042687;28;20377;-61
2021/03/12 03:03:09;;;;;;;1.23;0.60;;;6.80;85.80;;;;;;5054593;28;20047;-60
2021/03/12 03:05:59;;;;;;;3.25;0.80;;;6.70;85.90;;;;;;5054300;28;20737;-61
2021/03/12 03:08:26;;;;;;;3.33;0.75;;;6.80;86.30;;;;;;5041884;28;20043;-60
2021/03/12 03:10:53;;;;;;;3.67;0.80;;;6.80;85.60;;;;;;5055882;28;20052;-60
2021/03/12 03:13:20;;;;;;;2.17;1.00;;;6.90;85.40;;;;;;5041427;28;20120;-62
2021/03/12 03:15:46;;;;;;;3.78;0.70;;;6.90;85.30;;;;;;5038196;28;20039;-61
2021/03/12 03:18:12;;;;;;;1.25;0.82;;;6.80;84.60;;;;;;5038970;28;20029;-61
2021/03/12 03:20:43;;;;;;;4.88;1.20;;;6.80;85.30;;;;;;5039845;28;20039;-61
2021/03/12 03:23:10;;;;;;;1.50;0.95;;;6.80;85.50;;;;;;5040918;28;20617;-61
2021/03/12 03:25:36;;;;;;;3.92;0.60;;;6.80;85.60;;;;;;5040183;28;20036;-61
2021/03/12 03:28:07;;;;;;;2.83;0.88;;;6.70;85.10;;;;;;5042057;28;20036;-61
2021/03/12 03:30:33;;;;;;;4.28;0.85;;;6.80;85.80;;;;;;5060105;28;20336;-61
2021/03/12 03:33:06;;;;;;;2.72;1.13;;;6.80;85.80;;;;;;5042139;28;20095;-61
2021/03/12 03:35:33;;;;;;;2.75;1.00;;;6.90;85.60;;;;;;5044818;28;20163;-62
2021/03/12 03:37:59;;;;;;;1.35;0.65;;;7.00;85.20;;;;;;5062560;28;20078;-60
2021/03/12 03:40:25;;;;;;;3.65;1.15;;;7.00;84.60;;;;;;5042663;28;20032;-61
2021/03/12 03:42:56;;;;;;;4.50;1.08;;;7.00;84.70;;;;;;5043410;28;20036;-61
2021/03/12 03:45:29;;;;;;;2.17;0.82;;;6.90;85.00;;;;;;5054863;28;20049;-62
2021/03/12 03:48:02;;;;;;;2.78;0.85;;;6.90;85.30;;;;;;5038863;28;20067;-61
2021/03/12 03:50:29;;;;;;;3.25;0.80;;;6.90;84.70;;;;;;5051442;28;20056;-62
2021/03/12 03:52:55;;;;;;;2.55;1.00;;;6.90;85.10;;;;;;5056600;28;20491;-61
2021/03/12 03:55:25;;;;;;;4.60;0.85;;;6.90;84.80;;;;;;5056772;28;20043;-61
2021/03/12 03:57:52;;;;;;;2.22;0.77;;;6.90;84.80;;;;;;5056373;28;20136;-61
2021/03/12 04:00:19;;;;;;;3.35;0.70;;;6.90;85.00;;;;;;5056630;28;20032;-61
2021/03/12 04:02:58;;;;;;;2.33;0.90;;;6.80;84.20;;;;;;5055123;28;20064;-61
2021/03/12 04:05:26;;;;;;;2.80;1.20;;;6.80;84.50;;;;;;5056763;28;20086;-61
2021/03/12 04:07:56;;;;;;;5.75;1.02;;;6.70;84.80;;;;;;5051758;28;20071;-61
2021/03/12 04:10:23;;;;;;;9.90;1.20;;;6.60;85.80;;;;;;5057394;28;20040;-60
2021/03/12 04:12:50;;;;;;;3.33;1.02;;;6.60;86.10;;;;;;5038372;28;20443;-61
2021/03/12 04:15:18;;;;;;;7.13;1.15;;;6.50;86.40;;;;;;5055963;28;20040;-61
2021/03/12 04:17:45;;;;;;;5.60;1.25;;;6.40;86.50;;;;;;5041409;28;20029;-61
2021/03/12 04:20:13;;;;;;;7.00;1.85;;;6.40;87.20;;;;;;5053806;28;21196;-61
2021/03/12 04:22:39;;;;;;;4.57;1.00;;;6.40;87.70;;;;;;5056991;28;20653;-60
2021/03/12 04:25:08;;;;;;;4.43;1.17;;;6.40;87.20;;;;;;5039598;28;20029;-61
2021/03/12 04:27:35;;;;;;;4.90;1.05;;;6.40;86.90;;;;;;5039820;28;20028;-61
2021/03/12 04:30:03;;;;;;;6.35;2.17;;;6.40;87.30;;;;;;5039360;28;20036;-60
2021/03/12 04:32:31;;;;;;;3.42;1.30;;;6.40;87.30;;;;;;5053670;28;20063;-61
2021/03/12 04:34:58;;;;;;;2.95;1.48;;;6.40;87.20;;;;;;5050265;28;20036;-61
2021/03/12 04:37:24;;;;;;;4.82;1.30;;;6.30;87.60;;;;;;5041477;28;20060;-60
2021/03/12 04:39:51;;;;;;;3.53;1.58;;;6.30;87.90;;;;;;5041572;28;20068;-60
2021/03/12 04:42:21;;;;;;;3.20;1.60;;;6.30;88.30;;;;;;5053792;28;20033;-60
2021/03/12 04:44:47;;;;;;;3.67;2.00;;;6.40;87.40;;;;;;5044019;28;20069;-61
2021/03/12 04:47:14;;;;;;;2.33;1.38;;;6.50;87.40;;;;;;5043354;28;20730;-61
2021/03/12 04:49:44;;;;;;;2.78;1.50;;;6.50;86.70;;;;;;5050119;28;20443;-61
2021/03/12 04:52:11;;;;;;;3.75;1.67;;;6.40;86.50;;;;;;5043402;28;20032;-61
2021/03/12 04:54:37;;;;;;;3.97;1.85;;;6.50;86.90;;;;;;5038608;28;20448;-61
2021/03/12 04:57:04;;;;;;;4.95;2.05;;;6.50;87.10;;;;;;5050792;28;20036;-60
2021/03/12 04:59:34;;;;;;;5.82;1.95;;;6.40;86.40;;;;;;5049672;28;20029;-60
2021/03/12 05:02:01;;;;;;;4.00;1.98;;;6.40;86.70;;;;;;5046263;28;20535;-60
2021/03/12 05:04:28;;;;;;;5.35;2.25;;;6.30;87.40;;;;;;5050630;28;20028;-61
2021/03/12 05:06:56;;;;;;;7.10;2.22;;;6.30;87.70;;;;;;5044607;28;20128;-61
2021/03/12 05:09:39;;;;;;;3.08;1.70;;;6.30;88.00;;;;;;5050488;28;20048;-60
2021/03/12 05:12:06;;;;;;;4.43;1.83;;;6.30;87.40;;;;;;5055488;28;20583;-61
2021/03/12 05:14:34;;;;;;;4.22;2.10;;;6.40;87.00;;;;;;5049309;28;20024;-61
2021/03/12 05:17:00;;;;;;;5.95;2.20;;;6.50;86.30;;;;;;5043082;28;20025;-60
2021/03/12 05:19:26;;;;;;;5.15;2.53;;;6.60;86.20;;;;;;5060193;28;20033;-61
2021/03/12 05:21:56;;;;;;;12.52;5.57;;;6.50;86.20;;;;;;5052331;28;20658;-61
2021/03/12 05:24:23;;;;;;;14.43;6.10;;;6.50;86.40;;;;;;5061187;28;20374;-60
2021/03/12 05:26:51;;;;;;;18.52;8.00;;;6.40;87.20;;;;;;5048506;28;20132;-61
2021/03/12 05:29:21;;;;;;;10.35;5.30;;;6.30;87.10;;;;;;5050848;28;20041;-61
2021/03/12 05:31:52;;;;;;;7.32;2.38;;;6.30;87.20;;;;;;5052047;28;20037;-60
2021/03/12 05:34:18;;;;;;;6.07;1.73;;;6.40;86.60;;;;;;5049828;28;20032;-61
2021/03/12 05:36:44;;;;;;;4.20;1.67;;;6.40;85.90;;;;;;5047184;28;20035;-61
2021/03/12 05:39:12;;;;;;;2.45;1.65;;;6.30;86.00;;;;;;5052877;28;20063;-60
2021/03/12 05:41:41;;;;;;;4.10;1.70;;;6.20;86.80;;;;;;5033556;28;20036;-62
2021/03/12 05:44:06;;;;;;;5.47;2.47;;;6.20;86.50;;;;;;5052945;28;20048;-58
2021/03/12 05:46:36;;;;;;;9.57;4.28;;;6.20;86.40;;;;;;5044117;28;20032;-58
2021/03/12 05:49:06;;;;;;;4.13;2.10;;;6.10;86.40;;;;;;5053659;28;20040;-57
2021/03/12 05:51:36;;;;;;;3.92;2.15;;;6.20;86.60;;;;;;5049255;28;20029;-57
2021/03/12 05:54:03;;;;;;;4.60;2.20;;;6.20;86.30;;;;;;5049646;28;20057;-58
2021/03/12 05:56:29;;;;;;;3.80;2.70;;;6.20;86.40;;;;;;5035459;28;20144;-58
2021/03/12 05:59:03;;;;;;;6.45;2.72;;;6.20;85.90;;;;;;5048081;28;20060;-58
2021/03/12 06:01:32;;;;;;;4.20;2.42;;;6.20;86.40;;;;;;5052196;28;20182;-57
2021/03/12 06:03:59;;;;;;;5.90;2.90;;;6.10;87.00;;;;;;5053614;28;20041;-58
2021/03/12 06:06:28;;;;;;;8.85;4.15;;;6.10;87.00;;;;;;5044609;28;20036;-58
2021/03/12 06:08:55;;;;;;;5.70;3.13;;;6.20;87.40;;;;;;5038392;28;20063;-58
2021/03/12 06:11:21;;;;;;;5.60;2.85;;;6.00;87.40;;;;;;5048629;28;20040;-58
2021/03/12 06:13:55;;;;;;;7.85;3.20;;;6.00;87.70;;;;;;5047000;28;20024;-58
2021/03/12 06:16:50;;;;;;;6.93;3.50;;;6.10;87.80;;;;;;5041116;28;20044;-58
2021/03/12 06:19:22;;;;;;;4.47;2.80;;;6.20;87.30;;;;;;5045861;28;20037;-59
2021/03/12 06:22:07;;;;;;;7.03;3.25;;;6.30;86.80;;;;;;5044943;28;20076;-59
2021/03/12 06:24:34;;;;;;;7.15;4.22;;;6.40;87.10;;;;;;5045326;28;20032;-58
2021/03/12 06:27:28;;;;;;;8.15;4.13;;;6.40;86.20;;;;;;5048288;28;20037;-58
2021/03/12 06:29:59;;;;;;;7.32;3.88;;;6.30;87.70;;;;;;5062249;28;20071;-58
2021/03/12 06:32:43;;;;;;;5.23;3.00;;;6.40;87.60;;;;;;5046523;28;20033;-58
2021/03/12 06:35:20;;;;;;;5.15;3.83;;;6.40;86.90;;;;;;5050986;28;20119;-58
2021/03/12 06:38:09;;;;;;;6.50;3.40;;;6.30;86.40;;;;;;5049841;28;20217;-59
2021/03/12 06:40:44;;;;;;;5.68;3.28;;;6.10;87.60;;;;;;5052787;28;20442;-58
2021/03/12 06:43:26;;;;;;;5.90;3.53;;;6.10;88.20;;;;;;5043810;28;20094;-58
2021/03/12 06:45:59;;;;;;;6.07;3.65;;;6.00;87.90;;;;;;5040032;28;20059;-59
2021/03/12 06:48:33;;;;;;;9.18;4.00;;;6.10;88.60;;;;;;5050052;28;20123;-58
2021/03/12 06:51:26;;;;;;;8.50;3.88;;;6.10;88.60;;;;;;5051901;28;20060;-58
2021/03/12 06:54:05;;;;;;;7.03;4.40;;;6.30;87.90;;;;;;5051999;28;20448;-58
2021/03/12 06:56:34;;;;;;;11.50;5.50;;;6.50;87.40;;;;;;5051359;28;20111;-58
2021/03/12 06:59:06;;;;;;;14.15;7.47;;;6.60;86.60;;;;;;5038938;28;20029;-58
2021/03/12 07:02:02;;;;;;;5.97;3.88;;;6.80;85.20;;;;;;5038296;28;20036;-58
2021/03/12 07:04:33;;;;;;;7.13;3.92;;;6.90;85.10;;;;;;5039625;28;20570;-55
2021/03/12 07:07:12;;;;;;;5.13;3.58;;;7.00;84.00;;;;;;5054927;28;20028;-61
2021/03/12 07:09:38;;;;;;;7.22;3.40;;;6.90;84.10;;;;;;5037723;28;20033;-60
2021/03/12 07:12:14;;;;;;;5.50;3.47;;;6.80;83.70;;;;;;5045985;28;20055;-62
2021/03/12 07:14:40;;;;;;;7.03;3.78;;;6.90;84.20;;;;;;5057824;28;20116;-60
2021/03/12 07:17:18;;;;;;;4.93;3.70;;;7.00;84.50;;;;;;5055049;28;20025;-61
2021/03/12 07:19:45;;;;;;;5.90;3.42;;;7.20;83.20;;;;;;5021940;28;20029;-61
2021/03/12 07:22:13;;;;;;;5.03;3.13;;;7.30;82.90;;;;;;5047484;28;20044;-61
2021/03/12 07:24:42;;;;;;;6.25;3.30;;;7.30;81.40;;;;;;5039424;28;20044;-61
2021/03/12 07:27:13;;;;;;;7.85;3.53;;;7.40;82.00;;;;;;5037817;28;20091;-62
2021/03/12 07:30:03;;;;;;;3.67;2.90;;;7.60;81.50;;;;;;5039387;28;20397;-61
2021/03/12 07:32:38;;;;;;;5.55;2.80;;;7.70;80.30;;;;;;5043699;28;20033;-61
2021/03/12 07:35:06;;;;;;;5.60;3.15;;;8.20;78.30;;;;;;5054786;28;20837;-61
2021/03/12 07:37:59;;;;;;;5.75;2.47;;;8.70;75.50;;;;;;5044851;28;20044;-60
2021/03/12 07:40:29;;;;;;;4.90;3.10;;;9.20;74.10;;;;;;5056110;28;20136;-60
2021/03/12 07:43:03;;;;;;;5.03;3.13;;;9.70;72.70;;;;;;5041148;28;20458;-60
2021/03/12 07:46:09;;;;;;;5.57;3.00;;;10.10;71.00;;;;;;5054490;28;20858;-61
2021/03/12 07:48:54;;;;;;;7.65;3.10;;;10.00;69.60;;;;;;5054525;28;20399;-63
2021/03/12 07:51:46;;;;;;;6.03;2.88;;;9.70;71.30;;;;;;5026632;28;20048;-61
2021/03/12 07:54:14;;;;;;;4.65;2.83;;;9.60;71.70;;;;;;5044666;28;20028;-62
2021/03/12 07:56:44;;;;;;;5.50;3.38;;;9.60;72.20;;;;;;5041477;28;20090;-61
2021/03/12 07:59:46;;;;;;;5.68;3.30;;;9.40;72.90;;;;;;5058907;28;20047;-61
2021/03/12 08:02:49;;;;;;;7.80;3.08;;;9.40;73.40;;;;;;5058196;28;20047;-60
2021/03/12 08:05:40;;;;;;;7.82;3.95;;;9.30;72.50;;;;;;5037108;28;20044;-61
2021/03/12 08:08:34;;;;;;;5.50;3.15;;;9.20;73.60;;;;;;5048849;28;20043;-61
2021/03/12 08:11:33;;;;;;;5.22;3.17;;;9.10;74.60;;;;;;5021363;28;20107;-61
2021/03/12 08:14:09;;;;;;;8.43;4.35;;;9.30;72.90;;;;;;5038559;28;20029;-61
2021/03/12 08:16:37;;;;;;;7.22;3.60;;;9.30;73.70;;;;;;5037585;28;20714;-62
2021/03/12 08:19:33;;;;;;;5.88;3.08;;;9.20;75.00;;;;;;5037693;28;20036;-58
2021/03/12 08:22:27;;;;;;;4.55;2.92;;;9.20;74.30;;;;;;5053662;28;20059;-58
2021/03/12 08:24:57;;;;;;;9.18;3.80;;;9.40;73.60;;;;;;5037858;28;20055;-59
2021/03/12 08:27:48;;;;;;;5.45;3.72;;;9.40;73.00;;;;;;5055924;28;20070;-59
2021/03/12 08:30:35;;;;;;;6.40;3.67;;;9.20;74.80;;;;;;5056631;28;20094;-60
2021/03/12 08:33:26;;;;;;;11.15;5.88;;;9.40;73.80;;;;;;5048422;28;20036;-59
2021/03/12 08:36:26;;;;;;;9.00;4.32;;;9.80;73.50;;;;;;5052611;28;20086;-60
2021/03/12 08:39:28;;;;;;;7.70;4.10;;;9.90;70.80;;;;;;5058249;28;20090;-59
2021/03/12 08:42:17;;;;;;;5.40;3.88;;;9.60;71.80;;;;;;5057359;28;20064;-59
2021/03/12 08:45:04;;;;;;;5.30;3.63;;;9.40;71.50;;;;;;5040245;28;20033;-59
2021/03/12 08:47:45;;;;;;;9.95;4.20;;;9.10;72.10;;;;;;5042533;28;20907;-59
2021/03/12 08:50:11;;;;;;;7.00;4.00;;;8.90;74.10;;;;;;5048112;28;20067;-60
2021/03/12 08:52:46;;;;;;;5.80;3.70;;;8.90;74.40;;;;;;5040384;28;20783;-59
2021/03/12 08:55:36;;;;;;;7.95;3.88;;;8.90;75.00;;;;;;5042269;28;20699;-59
2021/03/12 08:58:20;;;;;;;6.88;4.65;;;8.90;73.50;;;;;;5042132;28;20084;-59
2021/03/12 09:00:54;;;;;;;10.07;4.15;;;8.90;73.90;;;;;;5055438;28;20197;-59
2021/03/12 09:03:37;;;;;;;8.15;4.65;;;8.90;74.10;;;;;;5059790;28;20064;-59
2021/03/12 09:06:18;;;;;;;6.43;3.70;;;8.90;75.30;;;;;;5049303;28;20037;-59
2021/03/12 09:08:58;;;;;;;5.63;3.35;;;9.20;73.50;;;;;;5050454;28;20693;-59
2021/03/12 09:11:56;;;;;;;5.63;3.00;;;9.40;72.60;;;;;;5053730;28;20094;-60
2021/03/12 09:14:24;;;;;;;6.13;3.20;;;9.50;70.20;;;;;;5043215;28;20056;-60
2021/03/12 09:16:58;;;;;;;8.38;2.97;;;9.60;70.40;;;;;;5037732;28;20144;-60
2021/03/12 09:19:25;;;;;;;6.72;3.47;;;10.30;69.90;;;;;;5065162;28;20397;-59
2021/03/12 09:21:58;;;;;;;6.15;2.95;;;10.60;67.10;;;;;;5038118;28;20040;-59
2021/03/12 09:24:30;;;;;;;4.47;2.65;;;10.50;66.60;;;;;;5056398;28;20040;-59
2021/03/12 09:26:58;;;;;;;4.43;2.92;;;10.50;67.40;;;;;;5052213;28;20040;-60
2021/03/12 09:29:36;;;;;;;6.50;2.80;;;10.60;66.10;;;;;;5054871;28;20021;-60
2021/03/12 09:32:04;;;;;;;5.05;2.20;;;10.40;66.20;;;;;;5059743;28;20206;-59
2021/03/12 09:34:37;;;;;;;8.27;2.95;;;10.50;65.70;;;;;;5042944;28;20062;-59
2021/03/12 09:37:10;;;;;;;3.88;2.60;;;10.10;66.10;;;;;;5043468;28;20060;-60
2021/03/12 09:39:44;;;;;;;5.15;2.47;;;9.90;67.60;;;;;;5049649;28;20044;-59
2021/03/12 09:42:39;;;;;;;5.80;2.55;;;9.90;69.00;;;;;;5022465;28;20789;-60
2021/03/12 09:45:25;;;;;;;4.50;2.70;;;9.90;69.20;;;;;;5042892;28;20155;-59
2021/03/12 09:47:57;;;;;;;6.20;2.97;;;10.00;68.60;;;;;;5050528;28;20032;-60
2021/03/12 09:50:27;;;;;;;5.63;2.63;;;9.90;67.80;;;;;;5056496;28;20040;-59
2021/03/12 09:53:06;;;;;;;6.47;2.83;;;9.90;68.50;;;;;;5057688;28;20829;-59
2021/03/12 09:55:49;;;;;;;7.43;2.57;;;9.80;67.70;;;;;;5056070;28;20526;-59
2021/03/12 09:58:20;;;;;;;4.72;2.40;;;9.70;67.00;;;;;;5055691;28;20024;-59
2021/03/12 10:01:17;;;;;;;5.50;3.40;;;9.90;68.00;;;;;;5047063;28;20467;-59
2021/03/12 10:03:47;;;;;;;10.90;4.05;;;10.10;67.20;;;;;;5051412;28;20052;-60
2021/03/12 10:07:08;;;;;;;7.00;2.42;;;10.30;65.50;;;;;;5048295;28;20055;-59
2021/03/12 10:09:35;;;;;;;7.07;2.95;;;10.60;63.90;;;;;;5044349;28;20021;-60
2021/03/12 10:12:21;;;;;;;9.45;2.60;;;11.00;63.70;;;;;;5051927;28;20060;-60
2021/03/12 10:14:54;;;;;;;7.45;2.08;;;11.20;63.00;;;;;;5051639;28;20111;-60
2021/03/12 10:17:36;;;;;;;8.60;2.53;;;11.30;61.20;;;;;;5044293;28;20039;-60
2021/03/12 10:20:10;;;;;;;4.20;2.10;;;11.50;58.10;;;;;;5047166;28;20024;-59
2021/03/12 10:22:42;;;;;;;6.25;2.45;;;11.50;58.60;;;;;;5052136;28;20043;-58
2021/03/12 10:25:15;;;;;;;8.50;2.58;;;11.20;59.20;;;;;;5049408;28;20135;-58
2021/03/12 10:27:42;;;;;;;6.30;2.97;;;10.90;60.50;;;;;;5041762;28;20039;-58
2021/03/12 10:30:20;;;;;;;5.38;2.70;;;10.60;60.90;;;;;;5046335;28;20044;-60
2021/03/12 10:32:48;;;;;;;11.48;3.47;;;10.50;60.70;;;;;;5038670;28;20156;-59
2021/03/12 10:35:44;;;;;;;6.72;3.17;;;10.20;61.10;;;;;;5040333;28;20116;-59
2021/03/12 10:38:17;;;;;;;9.80;2.67;;;10.30;68.00;;;;;;5048839;28;20071;-59
2021/03/12 10:40:44;;;;;;;6.53;2.30;;;11.10;64.60;;;;;;5044609;28;20536;-62
2021/03/12 10:43:44;;;;;;;5.63;2.50;;;11.90;59.40;;;;;;5049632;28;20035;-59
2021/03/12 10:46:11;;;;;;;4.57;2.42;;;12.10;55.70;;;;;;5033239;28;20080;-59
2021/03/12 10:48:44;;;;;;;4.43;2.33;;;11.80;57.20;;;;;;5052521;28;20684;-59
2021/03/12 10:51:10;;;;;;;7.70;3.08;;;11.50;57.20;;;;;;5045661;28;20043;-62
2021/03/12 10:53:53;;;;;;;5.60;2.72;;;11.40;58.30;;;;;;5043575;28;20036;-59
2021/03/12 10:56:20;;;;;;;8.35;2.95;;;11.20;58.00;;;;;;5047168;28;20036;-60
2021/03/12 10:58:46;;;;;;;9.77;3.45;;;11.10;59.00;;;;;;5040391;28;20032;-59
2021/03/12 11:01:30;;;;;;;8.00;3.35;;;11.10;59.10;;;;;;5042927;28;20242;-59
2021/03/12 11:04:03;;;;;;;6.45;3.58;;;11.10;61.40;;;;;;5052011;28;20140;-60
2021/03/12 11:06:30;;;;;;;9.00;3.38;;;11.00;59.40;;;;;;5035291;28;21021;-59
2021/03/12 11:08:56;;;;;;;7.60;4.03;;;10.90;59.80;;;;;;5046886;28;20067;-59
2021/03/12 11:11:23;;;;;;;5.20;3.25;;;10.80;59.10;;;;;;5047725;28;20037;-60
2021/03/12 11:13:51;;;;;;;12.02;3.08;;;10.90;59.00;;;;;;5040709;28;20044;-60
2021/03/12 11:16:17;;;;;;;6.20;3.60;;;10.80;58.90;;;;;;5046629;28;20047;-60
2021/03/12 11:18:43;;;;;;;7.18;3.15;;;10.80;58.60;;;;;;5051660;28;20647;-60
2021/03/12 11:21:11;;;;;;;9.70;3.00;;;10.90;57.70;;;;;;5050794;28;20028;-59
2021/03/12 11:23:38;;;;;;;5.35;2.92;;;10.90;56.90;;;;;;5047430;28;20093;-59
2021/03/12 11:26:04;;;;;;;7.40;3.30;;;11.00;56.40;;;;;;5038357;28;20033;-60
2021/03/12 11:28:30;;;;;;;6.28;3.90;;;11.20;57.40;;;;;;5052135;28;20097;-60
2021/03/12 11:30:57;;;;;;;5.35;3.65;;;11.30;58.60;;;;;;5036550;28;20037;-59
2021/03/12 11:33:23;;;;;;;5.63;3.30;;;11.40;56.10;;;;;;5042325;28;20033;-59
2021/03/12 11:35:49;;;;;;;6.38;3.15;;;11.40;56.70;;;;;;5043589;28;20029;-60
2021/03/12 11:38:15;;;;;;;6.55;3.28;;;11.40;55.60;;;;;;5046311;28;20765;-60
2021/03/12 11:40:41;;;;;;;7.22;3.83;;;11.30;55.00;;;;;;5050532;28;20090;-59
2021/03/12 11:43:07;;;;;;;7.20;3.67;;;11.20;57.30;;;;;;5043105;28;20037;-59
2021/03/12 11:45:34;;;;;;;7.68;3.47;;;11.10;57.00;;;;;;5048717;28;20040;-60
2021/03/12 11:48:02;;;;;;;5.70;3.28;;;11.10;56.60;;;;;;5045395;28;20145;-60
2021/03/12 11:50:28;;;;;;;8.15;3.30;;;11.20;57.50;;;;;;5042895;28;20045;-59
2021/03/12 11:52:54;;;;;;;10.75;2.92;;;11.20;56.30;;;;;;5046932;28;20641;-60
2021/03/12 11:55:21;;;;;;;8.25;2.72;;;11.10;56.00;;;;;;5046364;28;20029;-59
2021/03/12 11:57:47;;;;;;;4.22;2.70;;;11.00;55.40;;;;;;5049817;28;20109;-59
2021/03/12 12:00:14;;;;;;;5.43;2.65;;;10.90;56.10;;;;;;5045075;28;20907;-60
2021/03/12 12:02:41;;;;;;;5.90;2.45;;;11.10;57.20;;;;;;5047691;28;20043;-60
2021/03/12 12:05:09;;;;;;;6.25;2.40;;;11.30;56.20;;;;;;5043928;28;20029;-60
2021/03/12 12:07:36;;;;;;;3.72;2.00;;;11.50;54.50;;;;;;5043734;28;20091;-60
2021/03/12 12:10:05;;;;;;;7.57;2.10;;;11.60;54.30;;;;;;5044763;28;20416;-59
2021/03/12 12:12:31;;;;;;;7.53;2.55;;;11.50;55.50;;;;;;5040848;28;20044;-59
2021/03/12 12:14:56;;;;;;;4.47;2.00;;;11.40;54.80;;;;;;5057430;28;20031;-58
2021/03/12 12:17:22;;;;;;;6.53;2.15;;;11.30;53.30;;;;;;5052378;28;20119;-60
2021/03/12 12:19:48;;;;;;;3.20;1.85;;;11.20;53.80;;;;;;5046160;28;20025;-59
2021/03/12 12:22:15;;;;;;;5.70;2.25;;;11.10;54.80;;;;;;5044223;28;20507;-59
2021/03/12 12:24:42;;;;;;;7.13;2.78;;;11.00;54.30;;;;;;5045073;28;20751;-59
2021/03/12 12:27:09;;;;;;;4.60;2.05;;;10.90;52.20;;;;;;5046585;28;20153;-59
2021/03/12 12:29:35;;;;;;;6.13;2.58;;;11.10;53.50;;;;;;5039188;28;20064;-59
2021/03/12 12:32:01;;;;;;;10.48;2.83;;;11.20;54.20;;;;;;5040618;28;20116;-59
2021/03/12 12:34:26;;;;;;;6.38;2.13;;;11.40;53.60;;;;;;5037571;28;20492;-59
2021/03/12 12:36:55;;;;;;;8.73;2.25;;;11.50;54.50;;;;;;5039971;28;20033;-59
2021/03/12 12:39:21;;;;;;;5.63;1.77;;;11.40;51.90;;;;;;5039874;28;20115;-59
2021/03/12 12:41:47;;;;;;;5.43;2.28;;;11.20;51.70;;;;;;5052709;28;21173;-59
2021/03/12 12:44:14;;;;;;;6.28;2.08;;;11.30;54.40;;;;;;5035848;28;20064;-59
2021/03/12 12:46:41;;;;;;;4.00;1.63;;;11.50;53.80;;;;;;5048305;28;20055;-60
2021/03/12 12:49:09;;;;;;;7.22;1.92;;;11.70;51.70;;;;;;5054728;28;20520;-60
2021/03/12 12:51:35;;;;;;;4.82;1.95;;;11.70;50.60;;;;;;5054023;28;20028;-59
2021/03/12 12:54:03;;;;;;;3.63;1.65;;;11.70;50.80;;;;;;5049181;28;20053;-59
2021/03/12 12:56:28;;;;;;;4.72;1.73;;;11.70;51.20;;;;;;5044516;28;20140;-59
2021/03/12 12:58:54;;;;;;;6.95;1.50;;;11.60;51.60;;;;;;5051095;28;20047;-59
2021/03/12 13:01:20;;;;;;;6.25;1.70;;;11.40;50.60;;;;;;5040345;28;20029;-59
2021/03/12 13:03:46;;;;;;;1.67;1.45;;;11.30;51.00;;;;;;5049763;28;20070;-59
2021/03/12 13:06:12;;;;;;;5.32;1.40;;;11.10;52.50;;;;;;5045350;28;20301;-59
2021/03/12 13:08:38;;;;;;;4.88;1.50;;;11.20;52.00;;;;;;5041073;28;20047;-59
2021/03/12 13:11:07;;;;;;;2.72;0.98;;;11.30;51.60;;;;;;5054060;28;20036;-59
2021/03/12 13:13:32;;;;;;;3.28;1.10;;;11.30;51.00;;;;;;5038813;28;20116;-59
2021/03/12 13:16:00;;;;;;;2.90;1.17;;;11.30;50.70;;;;;;5046528;28;20036;-59
2021/03/12 13:18:28;;;;;;;4.72;1.20;;;11.20;49.90;;;;;;5050313;28;20775;-59
2021/03/12 13:20:59;;;;;;;2.92;1.20;;;11.20;51.90;;;;;;5039360;28;20075;-58